X  CloseMetar Aviation Weather Data     KBWI Baltimore / Washington International Thurgood Marshall

Temperature

70°F Temperature

57°F Dewpoint

64% Humidity



Wind

13 MPH

21 KM/H

 6 M/S

11 KTS



100°
Due East
Current Conditions

Overcast Overcast
Pressure 1028.42 (hPa) - 30.37 (in)
Visibility 10 (mi) - 16.1 (km)
Airport
Airport-code KBWI

Location Baltimore / Washington International Thurgood Marshall 6 (mi)

Metar:
KBWI 132354Z 10011KT 10SM OVC032 21/14 A3037 RMK AO2 SLP282 T02110144 10222 20211 58001

Time: 13-09-2019 19:54